sensor_id;sensor_type;location;lat;lon;timestamp;P1;durP1;ratioP1;P2;durP2;ratioP2
55270;SDS011;41132;47.162;9.470;2022-11-03T00:01:34;7.30;;;3.38;;
55270;SDS011;41132;47.162;9.470;2022-11-03T00:04:01;5.85;;;2.83;;
55270;SDS011;41132;47.162;9.470;2022-11-03T00:06:28;8.35;;;3.55;;
55270;SDS011;41132;47.162;9.470;2022-11-03T00:08:56;6.30;;;2.97;;
55270;SDS011;41132;47.162;9.470;2022-11-03T00:11:22;6.28;;;2.83;;
55270;SDS011;41132;47.162;9.470;2022-11-03T00:13:47;4.85;;;2.40;;
55270;SDS011;41132;47.162;9.470;2022-11-03T00:16:12;6.00;;;2.65;;
55270;SDS011;41132;47.162;9.470;2022-11-03T00:18:38;6.07;;;2.80;;
55270;SDS011;41132;47.162;9.470;2022-11-03T00:21:04;6.72;;;3.03;;
55270;SDS011;41132;47.162;9.470;2022-11-03T00:23:32;6.15;;;2.70;;
55270;SDS011;41132;47.162;9.470;2022-11-03T00:26:03;7.20;;;3.10;;
55270;SDS011;41132;47.162;9.470;2022-11-03T00:28:29;6.50;;;2.58;;
55270;SDS011;41132;47.162;9.470;2022-11-03T00:30:56;5.55;;;2.63;;
55270;SDS011;41132;47.162;9.470;2022-11-03T00:33:21;6.43;;;2.65;;
55270;SDS011;41132;47.162;9.470;2022-11-03T00:35:53;6.82;;;3.00;;
55270;SDS011;41132;47.162;9.470;2022-11-03T00:38:20;5.90;;;2.97;;
55270;SDS011;41132;47.162;9.470;2022-11-03T00:40:51;6.35;;;3.38;;
55270;SDS011;41132;47.162;9.470;2022-11-03T00:43:17;5.75;;;2.78;;
55270;SDS011;41132;47.162;9.470;2022-11-03T00:45:42;8.32;;;2.65;;
55270;SDS011;41132;47.162;9.470;2022-11-03T00:48:08;6.10;;;2.80;;
55270;SDS011;41132;47.162;9.470;2022-11-03T00:50:51;8.25;;;2.38;;
55270;SDS011;41132;47.162;9.470;2022-11-03T00:53:17;7.18;;;2.90;;
55270;SDS011;41132;47.162;9.470;2022-11-03T00:55:47;6.70;;;2.88;;
55270;SDS011;41132;47.162;9.470;2022-11-03T00:58:13;5.68;;;2.40;;
55270;SDS011;41132;47.162;9.470;2022-11-03T01:00:38;6.60;;;2.72;;
55270;SDS011;41132;47.162;9.470;2022-11-03T01:03:04;5.13;;;2.60;;
55270;SDS011;41132;47.162;9.470;2022-11-03T01:05:30;6.38;;;2.60;;
55270;SDS011;41132;47.162;9.470;2022-11-03T01:08:14;7.90;;;2.20;;
55270;SDS011;41132;47.162;9.470;2022-11-03T01:10:39;9.52;;;2.70;;
55270;SDS011;41132;47.162;9.470;2022-11-03T01:13:24;7.40;;;2.50;;
55270;SDS011;41132;47.162;9.470;2022-11-03T01:15:50;6.07;;;2.65;;
55270;SDS011;41132;47.162;9.470;2022-11-03T01:18:15;7.03;;;2.90;;
55270;SDS011;41132;47.162;9.470;2022-11-03T01:20:41;5.95;;;2.38;;
55270;SDS011;41132;47.162;9.470;2022-11-03T01:23:06;5.30;;;2.53;;
55270;SDS011;41132;47.162;9.470;2022-11-03T01:25:31;6.57;;;2.70;;
55270;SDS011;41132;47.162;9.470;2022-11-03T01:28:00;8.38;;;3.15;;
55270;SDS011;41132;47.162;9.470;2022-11-03T01:30:26;8.43;;;2.75;;
55270;SDS011;41132;47.162;9.470;2022-11-03T01:32:51;6.03;;;2.78;;
55270;SDS011;41132;47.162;9.470;2022-11-03T01:35:17;5.05;;;2.40;;
55270;SDS011;41132;47.162;9.470;2022-11-03T01:37:42;7.18;;;2.90;;
55270;SDS011;41132;47.162;9.470;2022-11-03T01:40:08;5.38;;;2.60;;
55270;SDS011;41132;47.162;9.470;2022-11-03T01:42:33;7.63;;;2.92;;
55270;SDS011;41132;47.162;9.470;2022-11-03T01:44:59;6.72;;;2.70;;
55270;SDS011;41132;47.162;9.470;2022-11-03T01:47:28;5.25;;;2.50;;
55270;SDS011;41132;47.162;9.470;2022-11-03T01:50:00;6.53;;;2.75;;
55270;SDS011;41132;47.162;9.470;2022-11-03T01:52:31;7.68;;;2.60;;
55270;SDS011;41132;47.162;9.470;2022-11-03T01:55:03;5.85;;;2.90;;
55270;SDS011;41132;47.162;9.470;2022-11-03T01:57:34;6.55;;;2.90;;
55270;SDS011;41132;47.162;9.470;2022-11-03T02:00:04;4.93;;;2.60;;
55270;SDS011;41132;47.162;9.470;2022-11-03T02:02:32;6.13;;;2.67;;
55270;SDS011;41132;47.162;9.470;2022-11-03T02:04:58;5.10;;;2.70;;
55270;SDS011;41132;47.162;9.470;2022-11-03T02:07:29;6.20;;;2.80;;
55270;SDS011;41132;47.162;9.470;2022-11-03T02:10:00;6.35;;;2.55;;
55270;SDS011;41132;47.162;9.470;2022-11-03T02:12:26;5.50;;;2.63;;
55270;SDS011;41132;47.162;9.470;2022-11-03T02:14:54;6.32;;;2.55;;
55270;SDS011;41132;47.162;9.470;2022-11-03T02:17:23;6.45;;;3.13;;
55270;SDS011;41132;47.162;9.470;2022-11-03T02:22:32;5.68;;;2.58;;
55270;SDS011;41132;47.162;9.470;2022-11-03T02:27:40;6.80;;;2.80;;
55270;SDS011;41132;47.162;9.470;2022-11-03T02:30:06;5.75;;;2.33;;
55270;SDS011;41132;47.162;9.470;2022-11-03T02:32:34;6.07;;;2.53;;
55270;SDS011;41132;47.162;9.470;2022-11-03T02:35:21;5.90;;;2.58;;
55270;SDS011;41132;47.162;9.470;2022-11-03T02:37:54;6.93;;;3.03;;
55270;SDS011;41132;47.162;9.470;2022-11-03T02:40:29;5.63;;;2.20;;
55270;SDS011;41132;47.162;9.470;2022-11-03T02:42:58;6.57;;;2.45;;
55270;SDS011;41132;47.162;9.470;2022-11-03T02:45:25;4.97;;;2.25;;
55270;SDS011;41132;47.162;9.470;2022-11-03T02:47:52;5.13;;;2.25;;
55270;SDS011;41132;47.162;9.470;2022-11-03T02:50:24;5.25;;;2.50;;
55270;SDS011;41132;47.162;9.470;2022-11-03T02:52:51;6.97;;;2.42;;
55270;SDS011;41132;47.162;9.470;2022-11-03T02:57:56;6.85;;;2.22;;
55270;SDS011;41132;47.162;9.470;2022-11-03T03:00:30;5.60;;;2.25;;
55270;SDS011;41132;47.162;9.470;2022-11-03T03:03:02;4.70;;;2.13;;
55270;SDS011;41132;47.162;9.470;2022-11-03T03:05:32;5.00;;;2.45;;
55270;SDS011;41132;47.162;9.470;2022-11-03T03:08:04;6.15;;;2.28;;
55270;SDS011;41132;47.162;9.470;2022-11-03T03:10:36;5.45;;;2.50;;
55270;SDS011;41132;47.162;9.470;2022-11-03T03:13:05;7.85;;;2.78;;
55270;SDS011;41132;47.162;9.470;2022-11-03T03:18:14;5.32;;;2.67;;
55270;SDS011;41132;47.162;9.470;2022-11-03T03:23:52;7.50;;;2.97;;
55270;SDS011;41132;47.162;9.470;2022-11-03T03:26:23;7.38;;;2.80;;
55270;SDS011;41132;47.162;9.470;2022-11-03T03:29:01;6.22;;;2.67;;
55270;SDS011;41132;47.162;9.470;2022-11-03T03:31:32;5.70;;;2.88;;
55270;SDS011;41132;47.162;9.470;2022-11-03T03:34:00;8.00;;;2.63;;
55270;SDS011;41132;47.162;9.470;2022-11-03T03:36:28;5.95;;;2.38;;
55270;SDS011;41132;47.162;9.470;2022-11-03T03:38:55;6.63;;;2.63;;
55270;SDS011;41132;47.162;9.470;2022-11-03T03:41:24;7.72;;;2.60;;
55270;SDS011;41132;47.162;9.470;2022-11-03T03:43:53;5.85;;;2.45;;
55270;SDS011;41132;47.162;9.470;2022-11-03T03:46:22;5.40;;;2.63;;
55270;SDS011;41132;47.162;9.470;2022-11-03T03:48:52;6.53;;;2.97;;
55270;SDS011;41132;47.162;9.470;2022-11-03T03:51:18;7.05;;;3.25;;
55270;SDS011;41132;47.162;9.470;2022-11-03T03:53:51;4.38;;;2.10;;
55270;SDS011;41132;47.162;9.470;2022-11-03T03:56:19;4.90;;;2.47;;
55270;SDS011;41132;47.162;9.470;2022-11-03T03:58:50;5.28;;;2.60;;
55270;SDS011;41132;47.162;9.470;2022-11-03T04:01:16;7.03;;;2.50;;
55270;SDS011;41132;47.162;9.470;2022-11-03T04:03:41;5.95;;;2.63;;
55270;SDS011;41132;47.162;9.470;2022-11-03T04:06:07;4.68;;;2.35;;
55270;SDS011;41132;47.162;9.470;2022-11-03T04:08:33;5.40;;;2.20;;
55270;SDS011;41132;47.162;9.470;2022-11-03T04:10:58;5.50;;;2.50;;
55270;SDS011;41132;47.162;9.470;2022-11-03T04:13:42;6.20;;;2.67;;
55270;SDS011;41132;47.162;9.470;2022-11-03T04:16:26;5.70;;;2.42;;
55270;SDS011;41132;47.162;9.470;2022-11-03T04:19:10;5.05;;;2.47;;
55270;SDS011;41132;47.162;9.470;2022-11-03T04:21:54;6.50;;;2.28;;
55270;SDS011;41132;47.162;9.470;2022-11-03T04:24:38;5.15;;;2.22;;
55270;SDS011;41132;47.162;9.470;2022-11-03T04:27:37;4.70;;;2.05;;
55270;SDS011;41132;47.162;9.470;2022-11-03T04:30:33;6.20;;;2.60;;
55270;SDS011;41132;47.162;9.470;2022-11-03T04:32:51;5.88;;;3.00;;
55270;SDS011;41132;47.162;9.470;2022-11-03T04:35:24;5.18;;;2.40;;
55270;SDS011;41132;47.162;9.470;2022-11-03T04:37:57;5.50;;;2.65;;
55270;SDS011;41132;47.162;9.470;2022-11-03T04:42:51;4.80;;;2.38;;
55270;SDS011;41132;47.162;9.470;2022-11-03T04:45:21;5.30;;;2.50;;
55270;SDS011;41132;47.162;9.470;2022-11-03T04:47:52;7.38;;;2.45;;
55270;SDS011;41132;47.162;9.470;2022-11-03T04:50:19;6.53;;;2.75;;
55270;SDS011;41132;47.162;9.470;2022-11-03T04:52:46;4.90;;;2.40;;
55270;SDS011;41132;47.162;9.470;2022-11-03T04:55:13;4.90;;;2.60;;
55270;SDS011;41132;47.162;9.470;2022-11-03T04:57:40;6.32;;;2.38;;
55270;SDS011;41132;47.162;9.470;2022-11-03T05:00:09;4.63;;;2.00;;
55270;SDS011;41132;47.162;9.470;2022-11-03T05:02:38;5.63;;;2.33;;
55270;SDS011;41132;47.162;9.470;2022-11-03T05:05:11;5.13;;;2.13;;
55270;SDS011;41132;47.162;9.470;2022-11-03T05:07:39;5.88;;;2.30;;
55270;SDS011;41132;47.162;9.470;2022-11-03T05:10:06;7.03;;;2.55;;
55270;SDS011;41132;47.162;9.470;2022-11-03T05:12:35;6.30;;;2.35;;
55270;SDS011;41132;47.162;9.470;2022-11-03T05:15:01;8.60;;;3.08;;
55270;SDS011;41132;47.162;9.470;2022-11-03T05:17:35;9.48;;;3.13;;
55270;SDS011;41132;47.162;9.470;2022-11-03T05:20:01;7.18;;;3.08;;
55270;SDS011;41132;47.162;9.470;2022-11-03T05:22:29;8.90;;;3.22;;
55270;SDS011;41132;47.162;9.470;2022-11-03T05:25:00;7.28;;;3.38;;
55270;SDS011;41132;47.162;9.470;2022-11-03T05:27:27;6.22;;;3.08;;
55270;SDS011;41132;47.162;9.470;2022-11-03T05:29:53;7.70;;;2.60;;
55270;SDS011;41132;47.162;9.470;2022-11-03T05:32:21;6.30;;;3.15;;
55270;SDS011;41132;47.162;9.470;2022-11-03T05:34:50;9.35;;;3.20;;
55270;SDS011;41132;47.162;9.470;2022-11-03T05:40:01;14.18;;;4.07;;
55270;SDS011;41132;47.162;9.470;2022-11-03T05:42:35;8.35;;;3.20;;
55270;SDS011;41132;47.162;9.470;2022-11-03T05:45:07;8.13;;;3.83;;
55270;SDS011;41132;47.162;9.470;2022-11-03T05:47:43;6.90;;;3.28;;
55270;SDS011;41132;47.162;9.470;2022-11-03T05:50:17;5.63;;;2.88;;
55270;SDS011;41132;47.162;9.470;2022-11-03T05:52:50;7.63;;;3.22;;
55270;SDS011;41132;47.162;9.470;2022-11-03T05:55:28;9.63;;;3.05;;
55270;SDS011;41132;47.162;9.470;2022-11-03T05:57:59;7.30;;;2.90;;
55270;SDS011;41132;47.162;9.470;2022-11-03T06:00:39;10.65;;;3.20;;
55270;SDS011;41132;47.162;9.470;2022-11-03T06:03:06;12.20;;;3.00;;
55270;SDS011;41132;47.162;9.470;2022-11-03T06:05:38;7.75;;;2.90;;
55270;SDS011;41132;47.162;9.470;2022-11-03T06:08:11;8.85;;;2.55;;
55270;SDS011;41132;47.162;9.470;2022-11-03T06:10:40;5.80;;;2.70;;
55270;SDS011;41132;47.162;9.470;2022-11-03T06:13:21;7.30;;;3.22;;
55270;SDS011;41132;47.162;9.470;2022-11-03T06:15:53;6.32;;;2.58;;
55270;SDS011;41132;47.162;9.470;2022-11-03T06:18:29;5.25;;;2.35;;
55270;SDS011;41132;47.162;9.470;2022-11-03T06:21:10;7.50;;;2.70;;
55270;SDS011;41132;47.162;9.470;2022-11-03T06:23:40;8.10;;;2.95;;
55270;SDS011;41132;47.162;9.470;2022-11-03T06:26:11;6.95;;;2.80;;
55270;SDS011;41132;47.162;9.470;2022-11-03T06:28:42;6.63;;;2.92;;
55270;SDS011;41132;47.162;9.470;2022-11-03T06:33:54;6.68;;;3.20;;
55270;SDS011;41132;47.162;9.470;2022-11-03T06:36:22;6.57;;;3.50;;
55270;SDS011;41132;47.162;9.470;2022-11-03T06:39:01;6.30;;;3.00;;
55270;SDS011;41132;47.162;9.470;2022-11-03T06:41:31;6.63;;;3.15;;
55270;SDS011;41132;47.162;9.470;2022-11-03T06:44:00;7.93;;;3.28;;
55270;SDS011;41132;47.162;9.470;2022-11-03T06:46:28;5.65;;;2.55;;
55270;SDS011;41132;47.162;9.470;2022-11-03T06:48:56;8.65;;;3.60;;
55270;SDS011;41132;47.162;9.470;2022-11-03T06:51:27;9.15;;;3.72;;
55270;SDS011;41132;47.162;9.470;2022-11-03T06:53:54;7.57;;;3.75;;
55270;SDS011;41132;47.162;9.470;2022-11-03T06:56:24;8.32;;;4.00;;
55270;SDS011;41132;47.162;9.470;2022-11-03T06:58:52;7.47;;;3.90;;
55270;SDS011;41132;47.162;9.470;2022-11-03T07:04:17;6.57;;;3.70;;
55270;SDS011;41132;47.162;9.470;2022-11-03T07:06:43;9.30;;;3.80;;
55270;SDS011;41132;47.162;9.470;2022-11-03T07:09:17;7.82;;;3.85;;
55270;SDS011;41132;47.162;9.470;2022-11-03T07:11:50;6.57;;;3.90;;
55270;SDS011;41132;47.162;9.470;2022-11-03T07:14:24;6.55;;;3.40;;
55270;SDS011;41132;47.162;9.470;2022-11-03T07:17:05;7.57;;;3.28;;
55270;SDS011;41132;47.162;9.470;2022-11-03T07:19:39;8.90;;;4.18;;
55270;SDS011;41132;47.162;9.470;2022-11-03T07:22:16;10.80;;;4.50;;
55270;SDS011;41132;47.162;9.470;2022-11-03T07:24:46;10.32;;;3.88;;
55270;SDS011;41132;47.162;9.470;2022-11-03T07:27:27;7.72;;;3.90;;
55270;SDS011;41132;47.162;9.470;2022-11-03T07:32:56;10.70;;;4.32;;
55270;SDS011;41132;47.162;9.470;2022-11-03T07:35:41;7.07;;;4.13;;
55270;SDS011;41132;47.162;9.470;2022-11-03T07:38:12;9.43;;;4.22;;
55270;SDS011;41132;47.162;9.470;2022-11-03T07:40:41;9.50;;;4.65;;
55270;SDS011;41132;47.162;9.470;2022-11-03T07:43:12;8.98;;;4.15;;
55270;SDS011;41132;47.162;9.470;2022-11-03T07:48:32;9.30;;;3.65;;
55270;SDS011;41132;47.162;9.470;2022-11-03T07:51:10;7.15;;;3.72;;
55270;SDS011;41132;47.162;9.470;2022-11-03T07:53:47;7.07;;;3.95;;
55270;SDS011;41132;47.162;9.470;2022-11-03T07:56:20;8.13;;;4.03;;
55270;SDS011;41132;47.162;9.470;2022-11-03T07:58:51;6.70;;;3.85;;
55270;SDS011;41132;47.162;9.470;2022-11-03T08:04:20;8.35;;;3.97;;
55270;SDS011;41132;47.162;9.470;2022-11-03T08:06:48;8.40;;;3.83;;
55270;SDS011;41132;47.162;9.470;2022-11-03T08:09:15;6.47;;;3.63;;
55270;SDS011;41132;47.162;9.470;2022-11-03T08:11:40;7.55;;;4.22;;
55270;SDS011;41132;47.162;9.470;2022-11-03T08:14:06;7.30;;;3.60;;
55270;SDS011;41132;47.162;9.470;2022-11-03T08:16:31;6.65;;;3.83;;
55270;SDS011;41132;47.162;9.470;2022-11-03T08:18:56;7.95;;;4.47;;
55270;SDS011;41132;47.162;9.470;2022-11-03T08:21:22;8.93;;;5.10;;
55270;SDS011;41132;47.162;9.470;2022-11-03T08:23:47;9.00;;;5.07;;
55270;SDS011;41132;47.162;9.470;2022-11-03T08:26:13;11.65;;;5.60;;
55270;SDS011;41132;47.162;9.470;2022-11-03T08:28:39;10.55;;;6.40;;
55270;SDS011;41132;47.162;9.470;2022-11-03T08:31:04;8.32;;;5.32;;
55270;SDS011;41132;47.162;9.470;2022-11-03T08:33:30;12.13;;;6.70;;
55270;SDS011;41132;47.162;9.470;2022-11-03T08:35:56;13.90;;;6.75;;
55270;SDS011;41132;47.162;9.470;2022-11-03T08:38:22;12.88;;;7.07;;
55270;SDS011;41132;47.162;9.470;2022-11-03T08:40:47;9.60;;;4.90;;
55270;SDS011;41132;47.162;9.470;2022-11-03T08:43:13;9.27;;;5.18;;
55270;SDS011;41132;47.162;9.470;2022-11-03T08:45:38;7.22;;;4.22;;
55270;SDS011;41132;47.162;9.470;2022-11-03T08:48:03;6.93;;;4.03;;
55270;SDS011;41132;47.162;9.470;2022-11-03T08:50:29;9.13;;;3.78;;
55270;SDS011;41132;47.162;9.470;2022-11-03T08:52:54;8.50;;;3.95;;
55270;SDS011;41132;47.162;9.470;2022-11-03T08:55:20;6.80;;;3.45;;
55270;SDS011;41132;47.162;9.470;2022-11-03T08:57:45;7.22;;;3.75;;
55270;SDS011;41132;47.162;9.470;2022-11-03T09:00:11;7.10;;;3.60;;
55270;SDS011;41132;47.162;9.470;2022-11-03T09:02:40;7.07;;;4.18;;
55270;SDS011;41132;47.162;9.470;2022-11-03T09:05:06;6.45;;;3.65;;
55270;SDS011;41132;47.162;9.470;2022-11-03T09:07:32;8.65;;;4.20;;
55270;SDS011;41132;47.162;9.470;2022-11-03T09:09:57;6.43;;;3.42;;
55270;SDS011;41132;47.162;9.470;2022-11-03T09:12:22;8.32;;;3.72;;
55270;SDS011;41132;47.162;9.470;2022-11-03T09:14:48;9.55;;;4.60;;
55270;SDS011;41132;47.162;9.470;2022-11-03T09:17:13;6.80;;;4.22;;
55270;SDS011;41132;47.162;9.470;2022-11-03T09:19:38;8.02;;;4.45;;
55270;SDS011;41132;47.162;9.470;2022-11-03T09:22:04;7.65;;;4.35;;
55270;SDS011;41132;47.162;9.470;2022-11-03T09:24:29;6.75;;;3.95;;
55270;SDS011;41132;47.162;9.470;2022-11-03T09:26:55;7.60;;;4.00;;
55270;SDS011;41132;47.162;9.470;2022-11-03T09:29:20;8.02;;;4.60;;
55270;SDS011;41132;47.162;9.470;2022-11-03T09:31:46;6.57;;;4.18;;
55270;SDS011;41132;47.162;9.470;2022-11-03T09:34:11;7.60;;;4.15;;
55270;SDS011;41132;47.162;9.470;2022-11-03T09:36:37;7.63;;;4.25;;
55270;SDS011;41132;47.162;9.470;2022-11-03T09:39:03;9.68;;;4.82;;
55270;SDS011;41132;47.162;9.470;2022-11-03T09:41:28;9.77;;;4.78;;
55270;SDS011;41132;47.162;9.470;2022-11-03T09:43:55;12.50;;;4.97;;
55270;SDS011;41132;47.162;9.470;2022-11-03T09:46:22;8.07;;;4.85;;
55270;SDS011;41132;47.162;9.470;2022-11-03T09:48:48;9.07;;;4.63;;
55270;SDS011;41132;47.162;9.470;2022-11-03T09:51:17;7.78;;;4.32;;
55270;SDS011;41132;47.162;9.470;2022-11-03T09:53:45;6.60;;;3.95;;
55270;SDS011;41132;47.162;9.470;2022-11-03T09:56:11;8.45;;;4.70;;
55270;SDS011;41132;47.162;9.470;2022-11-03T09:58:36;9.00;;;4.80;;
55270;SDS011;41132;47.162;9.470;2022-11-03T10:01:02;9.25;;;4.68;;
55270;SDS011;41132;47.162;9.470;2022-11-03T10:03:27;8.95;;;4.30;;
55270;SDS011;41132;47.162;9.470;2022-11-03T10:05:54;7.55;;;4.40;;
55270;SDS011;41132;47.162;9.470;2022-11-03T10:08:21;9.20;;;4.72;;
55270;SDS011;41132;47.162;9.470;2022-11-03T10:10:49;7.35;;;4.55;;
55270;SDS011;41132;47.162;9.470;2022-11-03T10:13:29;8.55;;;4.63;;
55270;SDS011;41132;47.162;9.470;2022-11-03T10:15:58;7.47;;;4.35;;
55270;SDS011;41132;47.162;9.470;2022-11-03T10:18:25;6.45;;;4.32;;
55270;SDS011;41132;47.162;9.470;2022-11-03T10:20:52;11.48;;;4.63;;
55270;SDS011;41132;47.162;9.470;2022-11-03T10:23:18;6.88;;;4.35;;
55270;SDS011;41132;47.162;9.470;2022-11-03T10:25:43;7.07;;;4.50;;
55270;SDS011;41132;47.162;9.470;2022-11-03T10:28:19;6.30;;;4.13;;
55270;SDS011;41132;47.162;9.470;2022-11-03T10:30:53;8.52;;;4.30;;
55270;SDS011;41132;47.162;9.470;2022-11-03T10:33:30;10.27;;;4.53;;
55270;SDS011;41132;47.162;9.470;2022-11-03T10:36:43;8.75;;;4.80;;
55270;SDS011;41132;47.162;9.470;2022-11-03T10:38:44;8.48;;;5.18;;
55270;SDS011;41132;47.162;9.470;2022-11-03T10:41:20;8.70;;;4.57;;
55270;SDS011;41132;47.162;9.470;2022-11-03T10:46:57;9.57;;;5.07;;
55270;SDS011;41132;47.162;9.470;2022-11-03T10:49:24;9.07;;;5.55;;
55270;SDS011;41132;47.162;9.470;2022-11-03T10:51:51;9.60;;;5.35;;
55270;SDS011;41132;47.162;9.470;2022-11-03T10:54:19;9.38;;;5.75;;
55270;SDS011;41132;47.162;9.470;2022-11-03T10:56:47;8.85;;;6.05;;
55270;SDS011;41132;47.162;9.470;2022-11-03T11:04:17;10.80;;;6.30;;
55270;SDS011;41132;47.162;9.470;2022-11-03T11:06:43;9.23;;;6.35;;
55270;SDS011;41132;47.162;9.470;2022-11-03T11:09:11;10.82;;;6.82;;
55270;SDS011;41132;47.162;9.470;2022-11-03T11:11:38;11.52;;;7.35;;
55270;SDS011;41132;47.162;9.470;2022-11-03T11:16:55;10.27;;;6.95;;
55270;SDS011;41132;47.162;9.470;2022-11-03T11:19:25;10.63;;;7.03;;
55270;SDS011;41132;47.162;9.470;2022-11-03T11:29:55;11.80;;;7.75;;
55270;SDS011;41132;47.162;9.470;2022-11-03T11:37:35;10.70;;;7.00;;
55270;SDS011;41132;47.162;9.470;2022-11-03T11:40:06;12.07;;;8.02;;
55270;SDS011;41132;47.162;9.470;2022-11-03T11:42:41;11.85;;;7.78;;
55270;SDS011;41132;47.162;9.470;2022-11-03T11:48:30;12.13;;;7.22;;
55270;SDS011;41132;47.162;9.470;2022-11-03T11:50:56;11.70;;;7.55;;
55270;SDS011;41132;47.162;9.470;2022-11-03T11:53:22;12.30;;;8.20;;
55270;SDS011;41132;47.162;9.470;2022-11-03T11:55:58;12.50;;;7.53;;
55270;SDS011;41132;47.162;9.470;2022-11-03T11:58:41;12.93;;;8.30;;
55270;SDS011;41132;47.162;9.470;2022-11-03T12:03:55;11.35;;;7.60;;
55270;SDS011;41132;47.162;9.470;2022-11-03T12:06:39;10.07;;;7.47;;
55270;SDS011;41132;47.162;9.470;2022-11-03T12:11:47;11.85;;;7.80;;
55270;SDS011;41132;47.162;9.470;2022-11-03T12:14:21;13.32;;;7.80;;
55270;SDS011;41132;47.162;9.470;2022-11-03T12:16:47;10.38;;;6.65;;
55270;SDS011;41132;47.162;9.470;2022-11-03T12:19:31;15.55;;;8.25;;
55270;SDS011;41132;47.162;9.470;2022-11-03T12:22:05;10.00;;;6.50;;
55270;SDS011;41132;47.162;9.470;2022-11-03T12:24:37;10.98;;;7.10;;
55270;SDS011;41132;47.162;9.470;2022-11-03T12:27:17;12.32;;;7.45;;
55270;SDS011;41132;47.162;9.470;2022-11-03T12:29:52;11.05;;;7.05;;
55270;SDS011;41132;47.162;9.470;2022-11-03T12:32:19;12.00;;;7.30;;
55270;SDS011;41132;47.162;9.470;2022-11-03T12:34:45;11.00;;;7.70;;
55270;SDS011;41132;47.162;9.470;2022-11-03T12:37:10;10.63;;;7.35;;
55270;SDS011;41132;47.162;9.470;2022-11-03T12:39:36;13.02;;;8.13;;
55270;SDS011;41132;47.162;9.470;2022-11-03T12:42:02;15.45;;;8.40;;
55270;SDS011;41132;47.162;9.470;2022-11-03T12:44:28;12.65;;;7.93;;
55270;SDS011;41132;47.162;9.470;2022-11-03T12:46:54;10.82;;;7.63;;
55270;SDS011;41132;47.162;9.470;2022-11-03T12:49:19;12.70;;;8.25;;
55270;SDS011;41132;47.162;9.470;2022-11-03T12:51:44;13.10;;;7.53;;
55270;SDS011;41132;47.162;9.470;2022-11-03T12:54:10;12.45;;;7.60;;
55270;SDS011;41132;47.162;9.470;2022-11-03T12:56:35;12.43;;;7.30;;
55270;SDS011;41132;47.162;9.470;2022-11-03T12:59:00;10.90;;;7.20;;
55270;SDS011;41132;47.162;9.470;2022-11-03T13:01:26;13.13;;;7.22;;
55270;SDS011;41132;47.162;9.470;2022-11-03T13:03:51;10.55;;;7.07;;
55270;SDS011;41132;47.162;9.470;2022-11-03T13:06:16;10.38;;;7.35;;
55270;SDS011;41132;47.162;9.470;2022-11-03T13:08:42;10.15;;;7.00;;
55270;SDS011;41132;47.162;9.470;2022-11-03T13:11:07;11.10;;;7.05;;
55270;SDS011;41132;47.162;9.470;2022-11-03T13:13:53;12.60;;;7.03;;
55270;SDS011;41132;47.162;9.470;2022-11-03T13:16:19;12.65;;;7.53;;
55270;SDS011;41132;47.162;9.470;2022-11-03T13:18:46;10.65;;;7.00;;
55270;SDS011;41132;47.162;9.470;2022-11-03T13:21:11;12.32;;;7.68;;
55270;SDS011;41132;47.162;9.470;2022-11-03T13:23:37;11.00;;;7.72;;
55270;SDS011;41132;47.162;9.470;2022-11-03T13:26:03;11.38;;;7.28;;
55270;SDS011;41132;47.162;9.470;2022-11-03T13:28:28;10.90;;;7.43;;
55270;SDS011;41132;47.162;9.470;2022-11-03T13:30:54;12.13;;;7.90;;
55270;SDS011;41132;47.162;9.470;2022-11-03T13:33:19;11.27;;;7.47;;
55270;SDS011;41132;47.162;9.470;2022-11-03T13:35:44;15.45;;;7.68;;
55270;SDS011;41132;47.162;9.470;2022-11-03T13:38:10;11.85;;;8.27;;
55270;SDS011;41132;47.162;9.470;2022-11-03T13:40:35;10.00;;;6.97;;
55270;SDS011;41132;47.162;9.470;2022-11-03T13:43:00;11.80;;;7.95;;
55270;SDS011;41132;47.162;9.470;2022-11-03T13:45:26;12.30;;;7.65;;
55270;SDS011;41132;47.162;9.470;2022-11-03T13:47:51;12.40;;;7.82;;
55270;SDS011;41132;47.162;9.470;2022-11-03T13:50:17;12.98;;;7.97;;
55270;SDS011;41132;47.162;9.470;2022-11-03T13:52:42;11.70;;;7.60;;
55270;SDS011;41132;47.162;9.470;2022-11-03T13:55:08;10.40;;;7.43;;
55270;SDS011;41132;47.162;9.470;2022-11-03T13:57:33;9.70;;;7.35;;
55270;SDS011;41132;47.162;9.470;2022-11-03T13:59:59;10.10;;;6.97;;
55270;SDS011;41132;47.162;9.470;2022-11-03T14:02:24;12.85;;;7.88;;
55270;SDS011;41132;47.162;9.470;2022-11-03T14:04:49;12.43;;;7.63;;
55270;SDS011;41132;47.162;9.470;2022-11-03T14:07:14;12.93;;;8.50;;
55270;SDS011;41132;47.162;9.470;2022-11-03T14:09:40;12.88;;;7.75;;
55270;SDS011;41132;47.162;9.470;2022-11-03T14:12:06;11.45;;;7.70;;
55270;SDS011;41132;47.162;9.470;2022-11-03T14:14:49;10.90;;;6.95;;
55270;SDS011;41132;47.162;9.470;2022-11-03T14:17:15;10.10;;;6.65;;
55270;SDS011;41132;47.162;9.470;2022-11-03T14:19:40;10.35;;;7.40;;
55270;SDS011;41132;47.162;9.470;2022-11-03T14:22:05;11.77;;;7.47;;
55270;SDS011;41132;47.162;9.470;2022-11-03T14:24:31;12.18;;;8.77;;
55270;SDS011;41132;47.162;9.470;2022-11-03T14:26:56;12.43;;;6.90;;
55270;SDS011;41132;47.162;9.470;2022-11-03T14:29:21;13.95;;;8.63;;
55270;SDS011;41132;47.162;9.470;2022-11-03T14:31:47;13.65;;;8.73;;
55270;SDS011;41132;47.162;9.470;2022-11-03T14:34:12;10.80;;;7.68;;
55270;SDS011;41132;47.162;9.470;2022-11-03T14:36:37;13.07;;;7.63;;
55270;SDS011;41132;47.162;9.470;2022-11-03T14:39:03;12.05;;;8.43;;
55270;SDS011;41132;47.162;9.470;2022-11-03T14:41:28;10.90;;;7.18;;
55270;SDS011;41132;47.162;9.470;2022-11-03T14:44:12;11.82;;;7.13;;
55270;SDS011;41132;47.162;9.470;2022-11-03T14:46:37;12.60;;;8.20;;
55270;SDS011;41132;47.162;9.470;2022-11-03T14:49:03;14.68;;;8.05;;
55270;SDS011;41132;47.162;9.470;2022-11-03T14:51:28;10.45;;;7.82;;
55270;SDS011;41132;47.162;9.470;2022-11-03T14:53:54;16.65;;;7.85;;
55270;SDS011;41132;47.162;9.470;2022-11-03T14:56:21;11.73;;;7.60;;
55270;SDS011;41132;47.162;9.470;2022-11-03T14:58:47;15.05;;;8.23;;
55270;SDS011;41132;47.162;9.470;2022-11-03T15:01:14;13.07;;;8.07;;
55270;SDS011;41132;47.162;9.470;2022-11-03T15:03:40;12.85;;;7.82;;
55270;SDS011;41132;47.162;9.470;2022-11-03T15:06:05;16.95;;;8.13;;
55270;SDS011;41132;47.162;9.470;2022-11-03T15:08:32;12.93;;;8.07;;
55270;SDS011;41132;47.162;9.470;2022-11-03T15:10:57;13.23;;;8.70;;
55270;SDS011;41132;47.162;9.470;2022-11-03T15:13:22;13.10;;;7.28;;
55270;SDS011;41132;47.162;9.470;2022-11-03T15:15:48;11.65;;;7.68;;
55270;SDS011;41132;47.162;9.470;2022-11-03T15:18:13;15.77;;;7.40;;
55270;SDS011;41132;47.162;9.470;2022-11-03T15:20:38;13.20;;;8.50;;
55270;SDS011;41132;47.162;9.470;2022-11-03T15:23:05;11.88;;;7.50;;
55270;SDS011;41132;47.162;9.470;2022-11-03T15:25:30;13.65;;;7.95;;
55270;SDS011;41132;47.162;9.470;2022-11-03T15:27:56;11.68;;;8.00;;
55270;SDS011;41132;47.162;9.470;2022-11-03T15:30:22;10.82;;;7.63;;
55270;SDS011;41132;47.162;9.470;2022-11-03T15:32:47;12.63;;;8.57;;
55270;SDS011;41132;47.162;9.470;2022-11-03T15:35:13;13.02;;;8.00;;
55270;SDS011;41132;47.162;9.470;2022-11-03T15:37:39;12.70;;;7.80;;
55270;SDS011;41132;47.162;9.470;2022-11-03T15:40:06;13.27;;;8.48;;
55270;SDS011;41132;47.162;9.470;2022-11-03T15:42:32;10.60;;;8.27;;
55270;SDS011;41132;47.162;9.470;2022-11-03T15:44:58;12.15;;;8.13;;
55270;SDS011;41132;47.162;9.470;2022-11-03T15:47:23;13.10;;;8.30;;
55270;SDS011;41132;47.162;9.470;2022-11-03T15:49:48;12.02;;;8.68;;
55270;SDS011;41132;47.162;9.470;2022-11-03T15:52:14;13.15;;;9.45;;
55270;SDS011;41132;47.162;9.470;2022-11-03T15:54:39;13.13;;;7.97;;
55270;SDS011;41132;47.162;9.470;2022-11-03T15:57:05;14.35;;;8.65;;
55270;SDS011;41132;47.162;9.470;2022-11-03T15:59:30;13.77;;;8.98;;